V.kerkis — C6QP5 — position and weather

sailwx.info

Track history (hours):
 
Tides and Currents Weather Stations Pressure Air Temp Water Temp Dewpoint Dewpoint Depression Visibility Wind Speed Wind Dir Waves Ship Positions

V.kerkis

Last reported at 2013-Dec-17 21:09 UTC. Time now 2014-Oct-02 06:31 UTC.
Position N 01°15' E 103°24'.
Warning: this ship's position is months out of date.

Length 315 m; draft 8.8 m.

Type: Cargo ship. MMSI: 308074000.

Date/timePositionNaut miles runAvg speedWind from/ knotsBaromVisibWave heightAir tempDewpointWater temp
2013-Dec-17 21:09N 01°15' E 103°24'710.9
2013-Dec-17 20:33N 01°13' E 103°31'1110.7
2013-Dec-17 19:33N 01°10' E 103°41'13 9.9
2013-Dec-17 18:16N 01°13' E 103°53'4 4.8
2013-Dec-17 17:30N 01°16' E 103°56'1 0.6
2013-Dec-17 15:16N 01°17' E 103°55'0 0.1
2013-Dec-17 14:16N 01°17' E 103°55'0 0.0
2013-Dec-17 13:25N 01°17' E 103°55'0 0.0
2013-Dec-17 10:28N 01°17' E 103°55'0 0.1
2013-Dec-17 06:10N 01°17' E 103°55'0 0.1
2013-Dec-17 03:33N 01°17' E 103°55'0 0.2
2013-Dec-17 02:33N 01°17' E 103°55'1 1.2
2013-Dec-17 01:32N 01°16' E 103°55'2 1.9
2013-Dec-17 00:33N 01°16' E 103°57'  
Track history (hours):
 
Tides and Currents Weather Stations Pressure Air Temp Water Temp Dewpoint Dewpoint Depression Visibility Wind Speed Wind Dir Waves Ship Positions

V.kerkis

Last reported at 2013-Dec-17 21:09 UTC. Time now 2014-Oct-02 06:31 UTC.
Position N 01°15' E 103°24'.
Warning: this ship's position is months out of date.

Length 315 m; draft 8.8 m.

Type: Cargo ship. MMSI: 308074000.

Date/timePositionNaut miles runAvg speedWind from/ knotsBaromVisibWave heightAir tempDewpointWater temp
2013-Dec-17 21:09N 01°15' E 103°24'710.9
2013-Dec-17 20:33N 01°13' E 103°31'1110.7
2013-Dec-17 19:33N 01°10' E 103°41'13 9.9
2013-Dec-17 18:16N 01°13' E 103°53'4 4.8
2013-Dec-17 17:30N 01°16' E 103°56'1 0.6
2013-Dec-17 15:16N 01°17' E 103°55'0 0.1
2013-Dec-17 14:16N 01°17' E 103°55'0 0.0
2013-Dec-17 13:25N 01°17' E 103°55'0 0.0
2013-Dec-17 10:28N 01°17' E 103°55'0 0.1
2013-Dec-17 06:10N 01°17' E 103°55'0 0.1
2013-Dec-17 03:33N 01°17' E 103°55'0 0.2
2013-Dec-17 02:33N 01°17' E 103°55'1 1.2
2013-Dec-17 01:32N 01°16' E 103°55'2 1.9
2013-Dec-17 00:33N 01°16' E 103°57'  

Dump ship's entire track history